createdAt,value
2023-04-18T00:02:39.141Z,7.17
2023-04-18T00:05:23.185Z,6.99
2023-04-18T00:08:06.787Z,7.39
2023-04-18T00:10:50.470Z,6.57
2023-04-18T00:13:34.126Z,6.44
2023-04-18T00:16:17.737Z,6.54
2023-04-18T00:19:05.393Z,6.03
2023-04-18T00:21:49.580Z,6.30
2023-04-18T00:24:33.111Z,6.38
2023-04-18T00:27:18.975Z,6.47
2023-04-18T00:30:02.514Z,6.64
2023-04-18T00:32:46.055Z,6.47
2023-04-18T00:35:29.791Z,6.23
2023-04-18T00:38:13.358Z,5.90
2023-04-18T00:40:57.538Z,6.32
2023-04-18T00:43:41.103Z,6.09
2023-04-18T00:46:24.726Z,5.68
2023-04-18T00:49:08.641Z,5.51
2023-04-18T00:51:53.570Z,5.66
2023-04-18T00:54:37.610Z,6.32
2023-04-18T00:57:22.521Z,5.63
2023-04-18T01:00:10.578Z,5.86
2023-04-18T01:02:56.066Z,5.78
2023-04-18T01:05:39.878Z,5.67
2023-04-18T01:08:24.592Z,5.45
2023-04-18T01:11:08.184Z,5.61
2023-04-18T01:14:06.281Z,5.56
2023-04-18T01:16:52.973Z,5.22
2023-04-18T01:19:38.089Z,5.30
2023-04-18T01:22:24.058Z,5.08
2023-04-18T01:25:09.433Z,5.01
2023-04-18T01:27:54.432Z,5.32
2023-04-18T01:30:38.129Z,5.67
2023-04-18T01:33:21.851Z,5.54
2023-04-18T01:36:05.513Z,5.97
2023-04-18T01:38:49.053Z,6.39
2023-04-18T01:41:33.107Z,6.60
2023-04-18T01:44:16.838Z,6.53
2023-04-18T01:47:02.974Z,6.68
2023-04-18T01:49:49.759Z,6.09
2023-04-18T01:52:33.521Z,6.23
2023-04-18T01:55:17.243Z,5.66
2023-04-18T01:58:00.846Z,6.09
2023-04-18T02:00:44.553Z,5.96
2023-04-18T02:03:28.349Z,5.44
2023-04-18T02:06:11.978Z,5.51
2023-04-18T02:08:55.616Z,5.56
2023-04-18T02:11:41.901Z,6.12
2023-04-18T02:14:27.270Z,6.33
2023-04-18T02:17:10.863Z,5.62
2023-04-18T02:19:54.525Z,5.86
2023-04-18T02:22:39.629Z,6.54
2023-04-18T02:25:24.338Z,5.43
2023-04-18T02:28:07.986Z,5.50
2023-04-18T02:30:51.621Z,5.62
2023-04-18T02:33:35.230Z,6.21
2023-04-18T02:36:18.812Z,6.28
2023-04-18T02:39:02.395Z,6.38
2023-04-18T02:41:46.013Z,6.55
2023-04-18T02:44:29.728Z,5.92
2023-04-18T02:47:13.263Z,6.13
2023-04-18T02:49:59.413Z,6.33
2023-04-18T02:52:44.392Z,5.76
2023-04-18T02:55:28.299Z,5.61
2023-04-18T02:58:14.877Z,5.99
2023-04-18T03:01:07.566Z,5.55
2023-04-18T03:04:08.127Z,5.58
2023-04-18T03:07:04.802Z,6.11
2023-04-18T03:09:52.654Z,5.99
2023-04-18T03:12:41.392Z,6.07
2023-04-18T03:15:26.923Z,6.19
2023-04-18T03:18:12.609Z,6.50
2023-04-18T03:20:57.982Z,6.30
2023-04-18T03:23:42.149Z,5.69
2023-04-18T03:26:26.022Z,5.37
2023-04-18T03:29:10.994Z,5.19
2023-04-18T03:31:56.001Z,5.36
2023-04-18T03:34:39.884Z,5.45
2023-04-18T03:37:24.949Z,5.24
2023-04-18T03:40:11.755Z,5.23
2023-04-18T03:42:57.961Z,5.26
2023-04-18T03:45:41.601Z,4.94
2023-04-18T03:48:25.380Z,4.91
2023-04-18T03:51:09.539Z,4.96
2023-04-18T03:53:53.973Z,5.00
2023-04-18T03:56:37.809Z,5.02
2023-04-18T03:59:21.710Z,4.84
2023-04-18T04:02:07.299Z,4.79
2023-04-18T04:04:51.122Z,4.65
2023-04-18T04:07:35.212Z,4.65
2023-04-18T04:10:18.918Z,4.62
2023-04-18T04:13:04.179Z,4.74
2023-04-18T04:15:50.763Z,4.76
2023-04-18T04:18:34.697Z,4.80
2023-04-18T04:21:21.213Z,4.95
2023-04-18T04:24:08.395Z,4.97
2023-04-18T04:26:59.897Z,5.12
2023-04-18T04:29:43.880Z,5.11
2023-04-18T04:32:29.218Z,4.91
2023-04-18T04:35:12.877Z,4.70
2023-04-18T04:37:56.639Z,4.93
2023-04-18T04:40:50.029Z,5.09
2023-04-18T04:43:35.381Z,4.77
2023-04-18T04:46:20.332Z,4.73
2023-04-18T04:49:06.675Z,4.64
2023-04-18T04:51:50.292Z,4.65
2023-04-18T04:54:33.870Z,4.80
2023-04-18T04:57:18.044Z,4.82
2023-04-18T05:00:01.831Z,5.00
2023-04-18T05:02:46.577Z,5.01
2023-04-18T05:05:30.791Z,4.97
2023-04-18T05:08:14.643Z,4.90
2023-04-18T05:10:58.318Z,4.90
2023-04-18T05:13:42.015Z,4.95
2023-04-18T05:16:26.408Z,4.99
2023-04-18T05:19:10.033Z,5.04
2023-04-18T05:21:53.670Z,4.99
2023-04-18T05:24:37.332Z,5.07
2023-04-18T05:27:21.765Z,5.17
2023-04-18T05:30:06.513Z,5.05
2023-04-18T05:32:50.305Z,5.09
2023-04-18T05:35:34.145Z,5.19
2023-04-18T05:38:17.831Z,5.31
2023-04-18T05:41:03.208Z,5.22
2023-04-18T05:43:54.513Z,5.34
2023-04-18T05:46:51.475Z,5.44
2023-04-18T05:49:35.164Z,5.49
2023-04-18T05:52:18.802Z,5.49
2023-04-18T05:55:02.324Z,5.71
2023-04-18T05:57:46.078Z,5.94
2023-04-18T06:00:29.757Z,5.82
2023-04-18T06:03:13.564Z,5.78
2023-04-18T06:05:57.752Z,5.92
2023-04-18T06:08:41.713Z,6.33
2023-04-18T06:11:25.339Z,6.40
2023-04-18T06:14:09.043Z,6.21
2023-04-18T06:16:52.680Z,6.35
2023-04-18T06:19:36.440Z,6.41
2023-04-18T06:22:20.109Z,6.35
2023-04-18T06:25:04.133Z,6.76
2023-04-18T06:27:47.698Z,6.25
2023-04-18T06:30:31.411Z,6.29
2023-04-18T06:33:15.126Z,6.30
2023-04-18T06:35:59.458Z,6.34
2023-04-18T06:38:43.355Z,6.48
2023-04-18T06:41:26.912Z,6.84
2023-04-18T06:44:10.649Z,6.48
2023-04-18T06:46:55.103Z,6.51
2023-04-18T06:49:38.686Z,6.24
2023-04-18T06:52:22.241Z,6.39
2023-04-18T06:55:07.566Z,6.76
2023-04-18T06:57:51.159Z,6.54
2023-04-18T07:00:34.773Z,6.54
2023-04-18T07:03:18.600Z,6.66
2023-04-18T07:06:03.224Z,6.88
2023-04-18T07:08:47.003Z,6.89
2023-04-18T07:11:33.446Z,6.86
2023-04-18T07:14:17.235Z,7.05
2023-04-18T07:17:01.781Z,6.86
2023-04-18T07:19:45.585Z,7.15
2023-04-18T07:22:29.236Z,7.07
2023-04-18T07:25:15.849Z,7.09
2023-04-18T07:27:59.897Z,7.52
2023-04-18T07:30:43.548Z,7.28
2023-04-18T07:33:27.106Z,7.71
2023-04-18T07:36:11.080Z,7.88
2023-04-18T07:38:54.671Z,8.09
2023-04-18T07:41:38.213Z,7.99
2023-04-18T07:44:22.141Z,7.96
2023-04-18T07:47:11.516Z,7.61
2023-04-18T07:49:55.561Z,7.62
2023-04-18T07:52:39.587Z,7.60
2023-04-18T07:55:24.471Z,7.98
2023-04-18T07:58:07.993Z,7.56
2023-04-18T08:00:54.043Z,7.58
2023-04-18T08:03:37.670Z,7.79
2023-04-18T08:06:21.889Z,7.74
2023-04-18T08:09:06.165Z,7.86
2023-04-18T08:11:49.749Z,7.97
2023-04-18T08:14:33.349Z,7.92
2023-04-18T08:17:16.993Z,8.22
2023-04-18T08:20:05.080Z,7.98
2023-04-18T08:23:05.068Z,8.81
2023-04-18T08:25:50.278Z,7.90
2023-04-18T08:28:33.833Z,7.49
2023-04-18T08:31:17.426Z,7.82
2023-04-18T08:34:02.607Z,7.92
2023-04-18T08:36:48.516Z,7.87
2023-04-18T08:39:32.048Z,7.88
2023-04-18T08:42:19.687Z,8.01
2023-04-18T08:45:04.351Z,8.35
2023-04-18T08:47:48.143Z,8.07
2023-04-18T09:09:47.334Z,8.73
2023-04-18T09:12:32.911Z,9.11
2023-04-18T09:15:23.815Z,9.09
2023-04-18T09:18:11.144Z,9.56
2023-04-18T09:21:16.237Z,9.66
2023-04-18T09:24:24.299Z,9.38
2023-04-18T09:27:15.834Z,9.73
2023-04-18T09:30:00.981Z,9.69
2023-04-18T09:32:57.009Z,9.40
2023-04-18T09:35:47.262Z,9.68
2023-04-18T09:38:41.854Z,10.30
2023-04-18T09:41:25.882Z,9.51
2023-04-18T09:44:14.930Z,9.84
2023-04-18T09:47:00.040Z,9.24
2023-04-18T09:49:43.747Z,9.90
2023-04-18T09:52:36.074Z,10.61
2023-04-18T09:55:20.176Z,10.67
2023-04-18T09:58:04.920Z,10.75
2023-04-18T10:00:54.939Z,10.36
2023-04-18T10:03:47.765Z,10.40
2023-04-18T10:06:34.996Z,10.34
2023-04-18T10:09:19.783Z,10.95
2023-04-18T10:12:03.845Z,10.75
2023-04-18T10:14:47.954Z,10.50
2023-04-18T10:18:02.670Z,10.90
2023-04-18T10:20:51.893Z,10.30
2023-04-18T10:23:39.350Z,10.50
2023-04-18T10:26:50.528Z,11.25
2023-04-18T10:29:52.978Z,11.19
2023-04-18T10:32:36.612Z,11.37
2023-04-18T10:35:21.687Z,11.39
2023-04-18T10:38:05.334Z,12.07
2023-04-18T10:40:48.997Z,11.52
2023-04-18T10:44:10.256Z,12.46
2023-04-18T10:46:53.755Z,12.61
2023-04-18T10:49:37.337Z,11.28
2023-04-18T10:52:23.507Z,11.20
2023-04-18T10:55:19.024Z,10.69
2023-04-18T10:58:03.641Z,11.21
2023-04-18T11:00:51.679Z,12.20
2023-04-18T11:03:36.385Z,12.05
2023-04-18T11:06:28.466Z,12.49
2023-04-18T11:09:14.113Z,11.35
2023-04-18T11:12:09.592Z,11.40
2023-04-18T11:14:53.256Z,12.07
2023-04-18T11:17:40.358Z,12.18
2023-04-18T11:20:24.057Z,12.18
2023-04-18T11:23:18.366Z,12.03
2023-04-18T11:26:01.998Z,11.91
2023-04-18T11:28:54.830Z,11.49
2023-04-18T11:31:38.533Z,11.77
2023-04-18T11:34:28.215Z,11.73
2023-04-18T11:37:15.661Z,12.07
2023-04-18T11:39:59.340Z,11.52
2023-04-18T11:42:43.188Z,12.13
2023-04-18T11:45:27.541Z,11.79
2023-04-18T11:48:11.572Z,11.68
2023-04-18T11:50:55.116Z,12.00
2023-04-18T11:53:39.706Z,11.58
2023-04-18T11:56:23.302Z,12.39
2023-04-18T11:59:10.194Z,11.96
2023-04-18T12:02:15.458Z,12.46
2023-04-18T12:05:00.825Z,11.76
2023-04-18T12:07:45.996Z,12.27
2023-04-18T12:10:30.029Z,12.62
2023-04-18T12:13:14.089Z,12.08
2023-04-18T12:15:58.260Z,12.96
2023-04-18T12:18:42.067Z,13.09
2023-04-18T12:21:29.480Z,12.90
2023-04-18T12:24:16.245Z,12.39
2023-04-18T12:27:00.215Z,12.26
2023-04-18T12:29:43.840Z,12.57
2023-04-18T12:32:27.484Z,13.04
2023-04-18T12:35:14.440Z,13.22
2023-04-18T12:38:01.372Z,12.97
2023-04-18T12:40:45.167Z,13.52
2023-04-18T12:43:29.042Z,13.74
2023-04-18T12:46:12.669Z,13.68
2023-04-18T12:48:57.391Z,13.08
2023-04-18T12:51:40.943Z,13.21
2023-04-18T12:54:27.336Z,13.06
2023-04-18T12:57:11.403Z,13.65
2023-04-18T12:59:55.110Z,13.18
2023-04-18T13:02:41.747Z,13.63
2023-04-18T13:05:32.608Z,13.86
2023-04-18T13:08:18.135Z,13.62
2023-04-18T13:11:01.851Z,13.82
2023-04-18T13:13:45.665Z,13.81
2023-04-18T13:16:31.840Z,14.02
2023-04-18T13:19:15.689Z,14.01
2023-04-18T13:21:59.443Z,13.67
2023-04-18T13:24:43.011Z,14.19
2023-04-18T13:27:26.669Z,13.57
2023-04-18T13:30:11.687Z,13.89
2023-04-18T13:32:55.515Z,14.46
2023-04-18T13:35:39.138Z,13.54
2023-04-18T13:38:22.864Z,14.22
2023-04-18T13:41:12.771Z,14.00
2023-04-18T13:43:57.184Z,13.30
2023-04-18T13:46:41.068Z,13.78
2023-04-18T13:49:24.862Z,14.06
2023-04-18T13:52:08.558Z,14.41
2023-04-18T13:54:52.249Z,13.96
2023-04-18T13:57:37.453Z,13.89
2023-04-18T14:00:21.244Z,14.05
2023-04-18T14:03:05.183Z,13.66
2023-04-18T14:05:48.904Z,13.64
2023-04-18T14:08:32.455Z,13.21
2023-04-18T14:11:16.339Z,13.44
2023-04-18T14:13:59.942Z,14.02
2023-04-18T14:16:43.608Z,13.75
2023-04-18T14:19:27.760Z,13.51
2023-04-18T14:22:12.178Z,13.66
2023-04-18T14:24:56.286Z,13.75
2023-04-18T14:27:40.325Z,13.31
2023-04-18T14:30:25.307Z,13.63
2023-04-18T14:33:10.284Z,14.11
2023-04-18T14:35:53.865Z,13.69
2023-04-18T14:38:37.387Z,13.78
2023-04-18T14:41:21.216Z,14.10
2023-04-18T14:44:04.938Z,14.23
2023-04-18T14:46:48.644Z,13.90
2023-04-18T14:49:33.516Z,13.71
2023-04-18T14:52:17.105Z,13.82
2023-04-18T14:55:01.847Z,13.48
2023-04-18T14:57:46.134Z,14.02
2023-04-18T15:00:31.199Z,13.71
2023-04-18T15:03:16.487Z,14.51
2023-04-18T15:06:00.666Z,14.07
2023-04-18T15:08:47.311Z,13.75
2023-04-18T15:11:30.829Z,14.25
2023-04-18T15:14:14.873Z,13.94
2023-04-18T15:16:58.897Z,13.89
2023-04-18T15:19:42.563Z,13.88
2023-04-18T15:22:26.194Z,13.74
2023-04-18T15:25:09.986Z,13.97
2023-04-18T15:27:53.607Z,14.07
2023-04-18T15:30:37.207Z,14.28
2023-04-18T15:33:21.241Z,14.16
2023-04-18T15:36:05.296Z,14.15
2023-04-18T15:38:48.927Z,13.59
2023-04-18T15:41:37.125Z,13.66
2023-04-18T15:44:22.220Z,14.13
2023-04-18T15:47:06.081Z,13.59
2023-04-18T15:49:49.700Z,13.60
2023-04-18T15:52:33.349Z,13.74
2023-04-18T15:55:16.946Z,13.79
2023-04-18T15:58:00.487Z,13.73
2023-04-18T16:00:44.497Z,13.75
2023-04-18T16:03:28.131Z,13.61
2023-04-18T16:06:14.839Z,13.55
2023-04-18T16:08:58.671Z,13.47
2023-04-18T16:11:42.255Z,13.54
2023-04-18T16:14:25.810Z,13.60
2023-04-18T16:17:09.398Z,13.55
2023-04-18T16:19:54.332Z,13.45
2023-04-18T16:22:38.048Z,13.53
2023-04-18T16:25:21.608Z,13.74
2023-04-18T16:28:05.270Z,13.60
2023-04-18T16:30:49.123Z,13.43
2023-04-18T16:33:33.123Z,13.68
2023-04-18T16:36:16.955Z,13.71
2023-04-18T16:39:00.552Z,13.72
2023-04-18T16:41:44.297Z,13.55
2023-04-18T16:44:27.841Z,13.34
2023-04-18T16:47:11.413Z,13.44
2023-04-18T16:49:55.689Z,13.32
2023-04-18T16:52:39.374Z,13.27
2023-04-18T16:55:23.419Z,13.26
2023-04-18T16:58:07.184Z,13.02
2023-04-18T17:00:51.225Z,13.10
2023-04-18T17:03:35.328Z,13.15
2023-04-18T17:06:19.697Z,13.02
2023-04-18T17:09:06.476Z,12.95
2023-04-18T17:11:50.820Z,12.90
2023-04-18T17:14:35.036Z,12.63
2023-04-18T17:17:18.563Z,12.67
2023-04-18T17:20:02.278Z,12.70
2023-04-18T17:22:48.417Z,12.67
2023-04-18T17:25:32.097Z,12.59
2023-04-18T17:28:16.517Z,12.63
2023-04-18T17:31:01.996Z,12.47
2023-04-18T17:33:46.046Z,12.44
2023-04-18T17:36:29.870Z,12.77
2023-04-18T17:39:16.461Z,12.29
2023-04-18T17:42:01.180Z,12.22
2023-04-18T17:44:45.278Z,12.01
2023-04-18T17:47:29.048Z,11.97
2023-04-18T17:50:13.064Z,11.94
2023-04-18T17:52:57.707Z,11.96
2023-04-18T17:55:41.490Z,11.81
2023-04-18T17:58:26.748Z,11.63
2023-04-18T18:01:17.391Z,11.61
2023-04-18T18:04:01.320Z,11.58
2023-04-18T18:06:56.803Z,11.67
2023-04-18T18:09:43.577Z,11.61
2023-04-18T18:12:27.235Z,11.49
2023-04-18T18:15:11.367Z,11.20
2023-04-18T18:17:55.683Z,11.13
2023-04-18T18:20:43.374Z,11.09
2023-04-18T18:23:27.409Z,10.97
2023-04-18T18:26:12.542Z,10.96
2023-04-18T18:28:56.109Z,11.08
2023-04-18T18:31:39.790Z,10.99
2023-04-18T18:34:23.429Z,10.74
2023-04-18T18:37:07.511Z,10.82
2023-04-18T18:39:51.125Z,10.91
2023-04-18T18:42:34.726Z,10.66
2023-04-18T18:45:19.860Z,10.84
2023-04-18T18:48:04.175Z,10.64
2023-04-18T18:50:48.167Z,10.75
2023-04-18T18:53:31.745Z,10.50
2023-04-18T18:56:15.541Z,10.48
2023-04-18T18:58:59.114Z,10.52
2023-04-18T19:01:42.740Z,10.33
2023-04-18T19:04:26.697Z,10.41
2023-04-18T19:07:10.445Z,10.45
2023-04-18T19:09:55.399Z,10.73
2023-04-18T19:12:38.998Z,10.31
2023-04-18T19:15:23.017Z,10.32
2023-04-18T19:18:06.720Z,10.17
2023-04-18T19:20:51.180Z,10.25
2023-04-18T19:23:34.724Z,10.32
2023-04-18T19:26:18.752Z,10.17
2023-04-18T19:29:02.376Z,10.22
2023-04-18T19:31:46.080Z,10.12
2023-04-18T19:34:29.710Z,9.96
2023-04-18T19:37:13.276Z,10.09
2023-04-18T19:39:56.829Z,9.79
2023-04-18T19:42:41.003Z,9.73
2023-04-18T19:45:24.823Z,9.65
2023-04-18T19:48:08.381Z,9.94
2023-04-18T19:50:51.963Z,9.02
2023-04-18T19:53:35.648Z,9.20
2023-04-18T19:56:19.199Z,8.87
2023-04-18T19:59:04.911Z,9.10
2023-04-18T20:01:48.511Z,8.96
2023-04-18T20:04:34.466Z,8.85
2023-04-18T20:07:18.085Z,8.73
2023-04-18T20:10:02.253Z,8.50
2023-04-18T20:12:46.279Z,8.48
2023-04-18T20:15:30.899Z,8.43
2023-04-18T20:18:14.503Z,8.39
2023-04-18T20:20:58.698Z,8.32
2023-04-18T20:23:42.886Z,8.33
2023-04-18T20:26:26.544Z,8.15
2023-04-18T20:29:12.667Z,8.16
2023-04-18T20:31:56.497Z,8.28
2023-04-18T20:34:40.104Z,8.01
2023-04-18T20:37:24.656Z,8.10
2023-04-18T20:40:09.721Z,7.92
2023-04-18T20:42:57.805Z,7.94
2023-04-18T20:45:43.021Z,7.92
2023-04-18T20:48:26.672Z,7.86
2023-04-18T20:51:10.322Z,7.76
2023-04-18T20:53:53.874Z,7.80
2023-04-18T20:56:37.571Z,7.90
2023-04-18T20:59:21.075Z,7.67
2023-04-18T21:02:04.830Z,7.64
2023-04-18T21:04:48.957Z,7.62
2023-04-18T21:07:32.588Z,7.87
2023-04-18T21:10:16.113Z,7.55
2023-04-18T21:12:59.610Z,7.79
2023-04-18T21:15:43.250Z,7.53
2023-04-18T21:18:26.863Z,7.48
2023-04-18T21:21:10.435Z,7.69
2023-04-18T21:23:53.968Z,7.37
2023-04-18T21:26:37.517Z,7.65
2023-04-18T21:29:21.928Z,7.37
2023-04-18T21:32:05.546Z,7.31
2023-04-18T21:34:49.041Z,7.40
2023-04-18T21:37:32.770Z,7.24
2023-04-18T21:40:16.367Z,7.02
2023-04-18T21:42:59.928Z,7.06
2023-04-18T21:45:43.519Z,7.38
2023-04-18T21:48:27.082Z,7.06
2023-04-18T21:51:13.222Z,6.93
2023-04-18T21:53:56.697Z,6.75
2023-04-18T21:56:40.469Z,6.94
2023-04-18T21:59:24.015Z,6.65
2023-04-18T22:02:07.693Z,6.88
2023-04-18T22:04:51.251Z,6.93
2023-04-18T22:07:43.243Z,6.63
2023-04-18T22:10:35.361Z,6.40
2023-04-18T22:13:19.138Z,6.52
2023-04-18T22:16:03.894Z,6.60
2023-04-18T22:18:48.969Z,6.48
2023-04-18T22:21:32.668Z,6.24
2023-04-18T22:24:16.383Z,6.30
2023-04-18T22:27:01.330Z,6.19
2023-04-18T22:29:44.851Z,6.24
2023-04-18T22:32:28.373Z,6.36
2023-04-18T22:35:11.928Z,6.06
2023-04-18T22:37:55.885Z,6.21
2023-04-18T22:40:39.382Z,6.29
2023-04-18T22:59:44.350Z,6.44
2023-04-18T23:02:28.175Z,5.97
2023-04-18T23:05:11.868Z,6.19
2023-04-18T23:07:56.935Z,6.18
2023-04-18T23:10:41.936Z,6.53
2023-04-18T23:21:20.425Z,6.46
2023-04-18T23:24:04.005Z,6.42
2023-04-18T23:26:47.540Z,6.23
2023-04-18T23:29:31.083Z,6.16
2023-04-18T23:32:14.881Z,6.32
2023-04-18T23:34:59.724Z,6.27
2023-04-18T23:37:43.448Z,6.11
2023-04-18T23:40:26.946Z,6.10
2023-04-18T23:48:17.522Z,6.21
2023-04-18T23:51:01.038Z,6.26
2023-04-18T23:53:44.561Z,6.22
2023-04-18T23:56:29.809Z,6.22
2023-04-18T23:59:13.269Z,6.35
